sensor_id;sensor_type;location;lat;lon;timestamp;temperature;humidity
40738;DHT22;54759;48.094;-1.628;2023-06-10T00:00:02;25.30;69.90
40738;DHT22;54759;48.094;-1.628;2023-06-10T00:03:13;25.40;70.00
40738;DHT22;54759;48.094;-1.628;2023-06-10T00:06:15;25.40;70.10
40738;DHT22;54759;48.094;-1.628;2023-06-10T00:09:16;25.40;70.10
40738;DHT22;54759;48.094;-1.628;2023-06-10T00:12:19;25.30;70.00
40738;DHT22;54759;48.094;-1.628;2023-06-10T00:15:21;25.30;69.90
40738;DHT22;54759;48.094;-1.628;2023-06-10T00:18:22;25.40;70.20
40738;DHT22;54759;48.094;-1.628;2023-06-10T00:21:24;25.40;70.20
40738;DHT22;54759;48.094;-1.628;2023-06-10T00:24:26;25.30;70.20
40738;DHT22;54759;48.094;-1.628;2023-06-10T00:27:31;24.50;69.70
40738;DHT22;54759;48.094;-1.628;2023-06-10T00:30:36;25.40;70.10
40738;DHT22;54759;48.094;-1.628;2023-06-10T00:33:37;25.30;70.20
40738;DHT22;54759;48.094;-1.628;2023-06-10T00:36:39;25.30;70.20
40738;DHT22;54759;48.094;-1.628;2023-06-10T00:39:40;25.30;70.20
40738;DHT22;54759;48.094;-1.628;2023-06-10T00:42:43;25.50;70.50
40738;DHT22;54759;48.094;-1.628;2023-06-10T00:45:48;25.30;70.20
40738;DHT22;54759;48.094;-1.628;2023-06-10T00:48:50;25.40;68.90
40738;DHT22;54759;48.094;-1.628;2023-06-10T00:51:52;25.50;70.20
40738;DHT22;54759;48.094;-1.628;2023-06-10T00:54:56;24.90;69.80
40738;DHT22;54759;48.094;-1.628;2023-06-10T00:57:58;25.40;70.20
40738;DHT22;54759;48.094;-1.628;2023-06-10T01:01:02;25.30;70.00
40738;DHT22;54759;48.094;-1.628;2023-06-10T01:04:06;25.30;70.00
40738;DHT22;54759;48.094;-1.628;2023-06-10T01:07:17;25.30;70.10
40738;DHT22;54759;48.094;-1.628;2023-06-10T01:10:22;25.30;70.00
40738;DHT22;54759;48.094;-1.628;2023-06-10T01:13:26;25.40;70.10
40738;DHT22;54759;48.094;-1.628;2023-06-10T01:16:32;25.20;70.30
40738;DHT22;54759;48.094;-1.628;2023-06-10T01:19:33;25.00;69.80
40738;DHT22;54759;48.094;-1.628;2023-06-10T01:22:37;25.30;70.00
40738;DHT22;54759;48.094;-1.628;2023-06-10T01:25:41;25.30;69.90
40738;DHT22;54759;48.094;-1.628;2023-06-10T01:28:49;25.30;69.90
40738;DHT22;54759;48.094;-1.628;2023-06-10T01:32:01;25.50;70.10
40738;DHT22;54759;48.094;-1.628;2023-06-10T01:35:05;25.20;69.80
40738;DHT22;54759;48.094;-1.628;2023-06-10T01:38:14;25.30;70.00
40738;DHT22;54759;48.094;-1.628;2023-06-10T01:41:16;25.20;69.80
40738;DHT22;54759;48.094;-1.628;2023-06-10T01:44:19;24.80;69.50
40738;DHT22;54759;48.094;-1.628;2023-06-10T01:47:21;25.20;69.80
40738;DHT22;54759;48.094;-1.628;2023-06-10T01:50:25;25.20;69.90
40738;DHT22;54759;48.094;-1.628;2023-06-10T01:53:27;25.10;69.90
40738;DHT22;54759;48.094;-1.628;2023-06-10T01:56:31;25.30;69.90
40738;DHT22;54759;48.094;-1.628;2023-06-10T01:59:32;25.20;69.90
40738;DHT22;54759;48.094;-1.628;2023-06-10T02:02:34;25.20;69.90
40738;DHT22;54759;48.094;-1.628;2023-06-10T02:05:38;25.00;69.80
40738;DHT22;54759;48.094;-1.628;2023-06-10T02:08:41;25.20;69.80
40738;DHT22;54759;48.094;-1.628;2023-06-10T02:11:43;25.40;70.00
40738;DHT22;54759;48.094;-1.628;2023-06-10T02:14:44;25.20;69.80
40738;DHT22;54759;48.094;-1.628;2023-06-10T02:17:48;25.30;69.90
40738;DHT22;54759;48.094;-1.628;2023-06-10T02:20:51;25.30;69.90
40738;DHT22;54759;48.094;-1.628;2023-06-10T02:23:53;25.10;69.70
40738;DHT22;54759;48.094;-1.628;2023-06-10T02:26:55;25.30;69.80
40738;DHT22;54759;48.094;-1.628;2023-06-10T02:29:57;25.30;69.90
40738;DHT22;54759;48.094;-1.628;2023-06-10T02:32:59;25.30;69.90
40738;DHT22;54759;48.094;-1.628;2023-06-10T02:36:03;24.90;69.70
40738;DHT22;54759;48.094;-1.628;2023-06-10T02:39:05;25.30;69.80
40738;DHT22;54759;48.094;-1.628;2023-06-10T02:42:08;25.20;70.00
40738;DHT22;54759;48.094;-1.628;2023-06-10T02:45:10;25.30;69.90
40738;DHT22;54759;48.094;-1.628;2023-06-10T02:48:15;25.30;69.90
40738;DHT22;54759;48.094;-1.628;2023-06-10T02:51:17;25.20;69.80
40738;DHT22;54759;48.094;-1.628;2023-06-10T02:54:22;25.20;70.00
40738;DHT22;54759;48.094;-1.628;2023-06-10T02:57:25;25.20;69.80
40738;DHT22;54759;48.094;-1.628;2023-06-10T03:00:30;25.10;69.80
40738;DHT22;54759;48.094;-1.628;2023-06-10T03:03:32;24.80;69.60
40738;DHT22;54759;48.094;-1.628;2023-06-10T03:06:43;25.20;69.80
40738;DHT22;54759;48.094;-1.628;2023-06-10T03:09:54;25.10;69.80
40738;DHT22;54759;48.094;-1.628;2023-06-10T03:12:55;25.10;69.80
40738;DHT22;54759;48.094;-1.628;2023-06-10T03:15:58;25.00;69.70
40738;DHT22;54759;48.094;-1.628;2023-06-10T03:19:01;24.80;69.60
40738;DHT22;54759;48.094;-1.628;2023-06-10T03:22:08;24.80;69.60
40738;DHT22;54759;48.094;-1.628;2023-06-10T03:25:13;25.10;69.70
40738;DHT22;54759;48.094;-1.628;2023-06-10T03:28:19;25.00;69.60
40738;DHT22;54759;48.094;-1.628;2023-06-10T03:31:22;25.20;70.00
40738;DHT22;54759;48.094;-1.628;2023-06-10T03:34:27;25.10;69.90
40738;DHT22;54759;48.094;-1.628;2023-06-10T03:37:29;25.20;69.80
40738;DHT22;54759;48.094;-1.628;2023-06-10T03:40:32;24.70;69.50
40738;DHT22;54759;48.094;-1.628;2023-06-10T03:43:33;25.10;69.70
40738;DHT22;54759;48.094;-1.628;2023-06-10T03:46:35;25.20;69.80
40738;DHT22;54759;48.094;-1.628;2023-06-10T03:49:37;25.20;69.90
40738;DHT22;54759;48.094;-1.628;2023-06-10T03:52:42;24.90;69.60
40738;DHT22;54759;48.094;-1.628;2023-06-10T03:55:44;25.10;69.80
40738;DHT22;54759;48.094;-1.628;2023-06-10T03:58:48;25.10;69.50
40738;DHT22;54759;48.094;-1.628;2023-06-10T04:01:50;24.70;69.50
40738;DHT22;54759;48.094;-1.628;2023-06-10T04:04:52;25.10;69.70
40738;DHT22;54759;48.094;-1.628;2023-06-10T04:07:54;25.00;69.70
40738;DHT22;54759;48.094;-1.628;2023-06-10T04:10:57;24.70;69.50
40738;DHT22;54759;48.094;-1.628;2023-06-10T04:13:58;25.00;69.60
40738;DHT22;54759;48.094;-1.628;2023-06-10T04:17:01;24.90;69.60
40738;DHT22;54759;48.094;-1.628;2023-06-10T04:20:05;24.60;69.40
40738;DHT22;54759;48.094;-1.628;2023-06-10T04:23:10;24.60;69.30
40738;DHT22;54759;48.094;-1.628;2023-06-10T04:26:15;25.10;69.90
40738;DHT22;54759;48.094;-1.628;2023-06-10T04:29:17;24.90;69.60
40738;DHT22;54759;48.094;-1.628;2023-06-10T04:32:19;24.60;69.50
40738;DHT22;54759;48.094;-1.628;2023-06-10T04:35:21;24.90;69.60
40738;DHT22;54759;48.094;-1.628;2023-06-10T04:38:23;25.00;69.70
40738;DHT22;54759;48.094;-1.628;2023-06-10T04:41:28;25.10;69.70
40738;DHT22;54759;48.094;-1.628;2023-06-10T04:44:31;24.80;69.60
40738;DHT22;54759;48.094;-1.628;2023-06-10T04:47:33;25.10;68.20
40738;DHT22;54759;48.094;-1.628;2023-06-10T04:50:35;25.00;69.80
40738;DHT22;54759;48.094;-1.628;2023-06-10T04:53:38;25.00;69.50
40738;DHT22;54759;48.094;-1.628;2023-06-10T04:56:40;24.90;69.70
40738;DHT22;54759;48.094;-1.628;2023-06-10T04:59:42;24.90;69.60
40738;DHT22;54759;48.094;-1.628;2023-06-10T05:02:44;24.80;69.70
40738;DHT22;54759;48.094;-1.628;2023-06-10T05:05:46;25.10;69.70
40738;DHT22;54759;48.094;-1.628;2023-06-10T05:08:47;24.70;69.60
40738;DHT22;54759;48.094;-1.628;2023-06-10T05:11:49;24.70;69.60
40738;DHT22;54759;48.094;-1.628;2023-06-10T05:14:52;25.20;70.00
40738;DHT22;54759;48.094;-1.628;2023-06-10T05:17:56;25.00;69.80
40738;DHT22;54759;48.094;-1.628;2023-06-10T05:20:58;25.00;69.80
40738;DHT22;54759;48.094;-1.628;2023-06-10T05:24:01;25.00;70.40
40738;DHT22;54759;48.094;-1.628;2023-06-10T05:27:04;25.10;69.90
40738;DHT22;54759;48.094;-1.628;2023-06-10T05:30:08;24.70;69.50
40738;DHT22;54759;48.094;-1.628;2023-06-10T05:33:10;24.90;69.70
40738;DHT22;54759;48.094;-1.628;2023-06-10T05:36:11;24.90;70.00
40738;DHT22;54759;48.094;-1.628;2023-06-10T05:39:13;24.90;69.90
40738;DHT22;54759;48.094;-1.628;2023-06-10T05:42:15;24.70;69.70
40738;DHT22;54759;48.094;-1.628;2023-06-10T05:45:16;24.90;69.80
40738;DHT22;54759;48.094;-1.628;2023-06-10T05:48:18;25.00;70.00
40738;DHT22;54759;48.094;-1.628;2023-06-10T05:51:20;25.00;69.90
40738;DHT22;54759;48.094;-1.628;2023-06-10T05:54:22;24.90;69.90
40738;DHT22;54759;48.094;-1.628;2023-06-10T05:57:24;24.70;69.90
40738;DHT22;54759;48.094;-1.628;2023-06-10T06:00:25;25.10;69.90
40738;DHT22;54759;48.094;-1.628;2023-06-10T06:03:27;25.00;70.70
40738;DHT22;54759;48.094;-1.628;2023-06-10T06:06:29;24.60;69.80
40738;DHT22;54759;48.094;-1.628;2023-06-10T06:09:31;24.90;70.00
40738;DHT22;54759;48.094;-1.628;2023-06-10T06:12:33;25.00;70.00
40738;DHT22;54759;48.094;-1.628;2023-06-10T06:15:34;25.00;70.10
40738;DHT22;54759;48.094;-1.628;2023-06-10T06:18:36;24.90;70.00
40738;DHT22;54759;48.094;-1.628;2023-06-10T06:21:37;25.00;70.10
40738;DHT22;54759;48.094;-1.628;2023-06-10T06:24:39;24.90;70.10
40738;DHT22;54759;48.094;-1.628;2023-06-10T06:27:41;24.70;70.00
40738;DHT22;54759;48.094;-1.628;2023-06-10T06:30:42;24.80;70.00
40738;DHT22;54759;48.094;-1.628;2023-06-10T06:33:44;25.00;70.20
40738;DHT22;54759;48.094;-1.628;2023-06-10T06:36:45;25.10;70.30
40738;DHT22;54759;48.094;-1.628;2023-06-10T06:39:47;24.70;70.20
40738;DHT22;54759;48.094;-1.628;2023-06-10T06:42:49;25.00;70.30
40738;DHT22;54759;48.094;-1.628;2023-06-10T06:46:09;24.90;70.30
40738;DHT22;54759;48.094;-1.628;2023-06-10T06:49:12;25.10;69.90
40738;DHT22;54759;48.094;-1.628;2023-06-10T06:52:14;25.00;70.40
40738;DHT22;54759;48.094;-1.628;2023-06-10T06:55:15;25.00;70.20
40738;DHT22;54759;48.094;-1.628;2023-06-10T06:58:17;25.00;70.40
40738;DHT22;54759;48.094;-1.628;2023-06-10T07:01:21;24.90;70.40
40738;DHT22;54759;48.094;-1.628;2023-06-10T07:04:23;24.90;70.60
40738;DHT22;54759;48.094;-1.628;2023-06-10T07:07:24;25.00;70.30
40738;DHT22;54759;48.094;-1.628;2023-06-10T07:10:26;24.80;70.70
40738;DHT22;54759;48.094;-1.628;2023-06-10T07:13:29;25.00;70.30
40738;DHT22;54759;48.094;-1.628;2023-06-10T07:16:30;24.70;70.20
40738;DHT22;54759;48.094;-1.628;2023-06-10T07:19:32;24.60;70.20
40738;DHT22;54759;48.094;-1.628;2023-06-10T07:22:33;25.00;70.60
40738;DHT22;54759;48.094;-1.628;2023-06-10T07:25:35;24.70;70.30
40738;DHT22;54759;48.094;-1.628;2023-06-10T07:28:37;24.90;70.40
40738;DHT22;54759;48.094;-1.628;2023-06-10T07:31:40;24.90;70.30
40738;DHT22;54759;48.094;-1.628;2023-06-10T07:34:42;24.80;70.40
40738;DHT22;54759;48.094;-1.628;2023-06-10T07:37:44;25.00;71.10
40738;DHT22;54759;48.094;-1.628;2023-06-10T07:40:46;24.90;70.70
40738;DHT22;54759;48.094;-1.628;2023-06-10T07:43:48;24.90;70.70
40738;DHT22;54759;48.094;-1.628;2023-06-10T07:46:55;25.00;70.70
40738;DHT22;54759;48.094;-1.628;2023-06-10T07:49:57;25.00;70.80
40738;DHT22;54759;48.094;-1.628;2023-06-10T07:52:59;25.00;70.90
40738;DHT22;54759;48.094;-1.628;2023-06-10T07:56:01;23.80;68.50
40738;DHT22;54759;48.094;-1.628;2023-06-10T07:59:03;25.10;70.80
40738;DHT22;54759;48.094;-1.628;2023-06-10T08:02:05;24.90;71.00
40738;DHT22;54759;48.094;-1.628;2023-06-10T08:05:07;25.10;70.90
40738;DHT22;54759;48.094;-1.628;2023-06-10T08:08:09;24.90;70.70
40738;DHT22;54759;48.094;-1.628;2023-06-10T08:11:11;25.50;71.30
40738;DHT22;54759;48.094;-1.628;2023-06-10T08:14:13;25.10;70.80
40738;DHT22;54759;48.094;-1.628;2023-06-10T08:17:14;25.00;70.80
40738;DHT22;54759;48.094;-1.628;2023-06-10T08:20:17;24.90;71.10
40738;DHT22;54759;48.094;-1.628;2023-06-10T08:23:20;25.20;70.80
40738;DHT22;54759;48.094;-1.628;2023-06-10T08:26:22;24.50;70.60
40738;DHT22;54759;48.094;-1.628;2023-06-10T08:29:25;25.00;70.90
40738;DHT22;54759;48.094;-1.628;2023-06-10T08:32:27;25.00;70.80
40738;DHT22;54759;48.094;-1.628;2023-06-10T08:35:28;25.00;71.00
40738;DHT22;54759;48.094;-1.628;2023-06-10T08:38:30;24.90;70.90
40738;DHT22;54759;48.094;-1.628;2023-06-10T08:41:35;24.70;71.40
40738;DHT22;54759;48.094;-1.628;2023-06-10T08:44:40;25.20;71.20
40738;DHT22;54759;48.094;-1.628;2023-06-10T08:47:44;25.20;71.30
40738;DHT22;54759;48.094;-1.628;2023-06-10T08:50:47;24.70;70.90
40738;DHT22;54759;48.094;-1.628;2023-06-10T08:54:01;25.20;71.20
40738;DHT22;54759;48.094;-1.628;2023-06-10T08:57:05;25.20;71.20
40738;DHT22;54759;48.094;-1.628;2023-06-10T09:00:08;25.20;71.20
40738;DHT22;54759;48.094;-1.628;2023-06-10T09:03:11;24.90;71.00
40738;DHT22;54759;48.094;-1.628;2023-06-10T09:06:13;25.10;71.10
40738;DHT22;54759;48.094;-1.628;2023-06-10T09:09:15;25.10;71.10
40738;DHT22;54759;48.094;-1.628;2023-06-10T09:12:16;25.30;71.40
40738;DHT22;54759;48.094;-1.628;2023-06-10T09:15:18;25.30;71.20
40738;DHT22;54759;48.094;-1.628;2023-06-10T09:18:20;25.10;71.10
40738;DHT22;54759;48.094;-1.628;2023-06-10T09:21:22;25.20;71.10
40738;DHT22;54759;48.094;-1.628;2023-06-10T09:24:24;25.20;71.00
40738;DHT22;54759;48.094;-1.628;2023-06-10T09:27:30;25.30;71.10
40738;DHT22;54759;48.094;-1.628;2023-06-10T09:30:33;25.20;70.90
40738;DHT22;54759;48.094;-1.628;2023-06-10T09:33:39;25.30;71.00
40738;DHT22;54759;48.094;-1.628;2023-06-10T09:36:41;25.20;71.20
40738;DHT22;54759;48.094;-1.628;2023-06-10T09:39:42;25.30;70.90
40738;DHT22;54759;48.094;-1.628;2023-06-10T09:42:44;25.10;70.90
40738;DHT22;54759;48.094;-1.628;2023-06-10T09:45:48;25.40;70.90
40738;DHT22;54759;48.094;-1.628;2023-06-10T09:48:50;25.30;70.80
40738;DHT22;54759;48.094;-1.628;2023-06-10T09:51:54;25.00;70.70
40738;DHT22;54759;48.094;-1.628;2023-06-10T09:55:02;25.30;70.70
40738;DHT22;54759;48.094;-1.628;2023-06-10T09:58:04;24.90;69.40
40738;DHT22;54759;48.094;-1.628;2023-06-10T10:01:06;24.90;70.90
40738;DHT22;54759;48.094;-1.628;2023-06-10T10:04:08;25.20;70.50
40738;DHT22;54759;48.094;-1.628;2023-06-10T10:07:09;24.70;71.00
40738;DHT22;54759;48.094;-1.628;2023-06-10T10:10:11;25.40;70.80
40738;DHT22;54759;48.094;-1.628;2023-06-10T10:13:13;25.40;70.70
40738;DHT22;54759;48.094;-1.628;2023-06-10T10:16:19;25.40;70.70
40738;DHT22;54759;48.094;-1.628;2023-06-10T10:19:28;25.40;70.50
40738;DHT22;54759;48.094;-1.628;2023-06-10T10:22:34;25.50;70.70
40738;DHT22;54759;48.094;-1.628;2023-06-10T10:25:38;25.20;70.30
40738;DHT22;54759;48.094;-1.628;2023-06-10T10:28:44;25.50;70.50
40738;DHT22;54759;48.094;-1.628;2023-06-10T10:31:49;25.40;70.40
40738;DHT22;54759;48.094;-1.628;2023-06-10T10:34:56;24.90;70.00
40738;DHT22;54759;48.094;-1.628;2023-06-10T10:38:00;25.50;70.50
40738;DHT22;54759;48.094;-1.628;2023-06-10T10:41:04;25.30;70.70
40738;DHT22;54759;48.094;-1.628;2023-06-10T10:44:06;25.50;70.80
40738;DHT22;54759;48.094;-1.628;2023-06-10T10:47:10;25.10;70.10
40738;DHT22;54759;48.094;-1.628;2023-06-10T10:50:14;25.50;70.40
40738;DHT22;54759;48.094;-1.628;2023-06-10T10:53:20;25.30;70.20
40738;DHT22;54759;48.094;-1.628;2023-06-10T10:56:21;25.50;70.40
40738;DHT22;54759;48.094;-1.628;2023-06-10T10:59:43;25.50;70.40
40738;DHT22;54759;48.094;-1.628;2023-06-10T11:02:46;25.50;70.30
40738;DHT22;54759;48.094;-1.628;2023-06-10T11:05:51;25.50;70.40
40738;DHT22;54759;48.094;-1.628;2023-06-10T11:08:52;25.50;70.80
40738;DHT22;54759;48.094;-1.628;2023-06-10T11:11:56;25.40;70.40
40738;DHT22;54759;48.094;-1.628;2023-06-10T11:15:03;25.40;70.20
40738;DHT22;54759;48.094;-1.628;2023-06-10T11:18:21;25.10;70.00
40738;DHT22;54759;48.094;-1.628;2023-06-10T11:21:24;25.40;70.50
40738;DHT22;54759;48.094;-1.628;2023-06-10T11:24:30;25.40;70.40
40738;DHT22;54759;48.094;-1.628;2023-06-10T11:27:37;25.30;70.50
40738;DHT22;54759;48.094;-1.628;2023-06-10T11:30:44;25.40;70.80
40738;DHT22;54759;48.094;-1.628;2023-06-10T11:33:47;25.50;70.50
40738;DHT22;54759;48.094;-1.628;2023-06-10T11:36:54;25.30;70.40
40738;DHT22;54759;48.094;-1.628;2023-06-10T11:39:58;25.50;70.80
40738;DHT22;54759;48.094;-1.628;2023-06-10T11:43:00;25.50;70.70
40738;DHT22;54759;48.094;-1.628;2023-06-10T11:46:02;25.60;70.80
40738;DHT22;54759;48.094;-1.628;2023-06-10T11:49:05;25.40;70.80
40738;DHT22;54759;48.094;-1.628;2023-06-10T11:52:12;25.50;70.80
40738;DHT22;54759;48.094;-1.628;2023-06-10T11:55:13;25.50;69.90
40738;DHT22;54759;48.094;-1.628;2023-06-10T11:58:16;25.30;71.00
40738;DHT22;54759;48.094;-1.628;2023-06-10T12:01:20;25.50;71.50
40738;DHT22;54759;48.094;-1.628;2023-06-10T12:04:30;25.50;71.60
40738;DHT22;54759;48.094;-1.628;2023-06-10T12:07:32;25.30;71.20
40738;DHT22;54759;48.094;-1.628;2023-06-10T12:10:39;25.50;71.60
40738;DHT22;54759;48.094;-1.628;2023-06-10T12:13:46;25.50;71.60
40738;DHT22;54759;48.094;-1.628;2023-06-10T12:16:52;25.50;71.80
40738;DHT22;54759;48.094;-1.628;2023-06-10T12:19:55;25.60;72.20
40738;DHT22;54759;48.094;-1.628;2023-06-10T12:22:58;25.50;71.90
40738;DHT22;54759;48.094;-1.628;2023-06-10T12:26:00;25.50;71.90
40738;DHT22;54759;48.094;-1.628;2023-06-10T12:29:02;25.60;72.10
40738;DHT22;54759;48.094;-1.628;2023-06-10T12:32:04;25.80;72.20
40738;DHT22;54759;48.094;-1.628;2023-06-10T12:35:11;25.40;72.30
40738;DHT22;54759;48.094;-1.628;2023-06-10T12:38:21;25.70;72.50
40738;DHT22;54759;48.094;-1.628;2023-06-10T12:41:23;25.60;72.20
40738;DHT22;54759;48.094;-1.628;2023-06-10T12:44:32;25.60;72.20
40738;DHT22;54759;48.094;-1.628;2023-06-10T12:47:37;25.50;72.00
40738;DHT22;54759;48.094;-1.628;2023-06-10T12:50:41;25.50;71.90
40738;DHT22;54759;48.094;-1.628;2023-06-10T12:53:43;25.10;71.70
40738;DHT22;54759;48.094;-1.628;2023-06-10T12:56:45;25.70;72.30
40738;DHT22;54759;48.094;-1.628;2023-06-10T12:59:49;25.50;72.20
40738;DHT22;54759;48.094;-1.628;2023-06-10T13:02:53;25.80;72.70
40738;DHT22;54759;48.094;-1.628;2023-06-10T13:05:55;25.70;72.40
40738;DHT22;54759;48.094;-1.628;2023-06-10T13:08:57;25.80;72.30
40738;DHT22;54759;48.094;-1.628;2023-06-10T13:11:59;25.70;72.30
40738;DHT22;54759;48.094;-1.628;2023-06-10T13:15:01;25.70;72.10
40738;DHT22;54759;48.094;-1.628;2023-06-10T13:18:12;25.30;71.70
40738;DHT22;54759;48.094;-1.628;2023-06-10T13:21:14;25.80;71.80
40738;DHT22;54759;48.094;-1.628;2023-06-10T13:24:16;25.70;71.80
40738;DHT22;54759;48.094;-1.628;2023-06-10T13:27:17;25.80;71.10
40738;DHT22;54759;48.094;-1.628;2023-06-10T13:30:19;25.90;70.90
40738;DHT22;54759;48.094;-1.628;2023-06-10T13:33:21;25.80;70.60
40738;DHT22;54759;48.094;-1.628;2023-06-10T13:36:25;25.40;70.00
40738;DHT22;54759;48.094;-1.628;2023-06-10T13:39:29;25.80;70.00
40738;DHT22;54759;48.094;-1.628;2023-06-10T13:42:30;25.90;70.00
40738;DHT22;54759;48.094;-1.628;2023-06-10T13:45:32;25.60;69.60
40738;DHT22;54759;48.094;-1.628;2023-06-10T13:48:33;25.50;69.70
40738;DHT22;54759;48.094;-1.628;2023-06-10T13:51:40;25.70;70.10
40738;DHT22;54759;48.094;-1.628;2023-06-10T13:54:41;25.70;70.00
40738;DHT22;54759;48.094;-1.628;2023-06-10T13:57:43;25.70;69.80
40738;DHT22;54759;48.094;-1.628;2023-06-10T14:00:44;25.80;70.00
40738;DHT22;54759;48.094;-1.628;2023-06-10T14:03:49;26.60;70.90
40738;DHT22;54759;48.094;-1.628;2023-06-10T14:06:52;25.80;69.00
40738;DHT22;54759;48.094;-1.628;2023-06-10T14:09:54;25.60;69.90
40738;DHT22;54759;48.094;-1.628;2023-06-10T14:12:55;25.70;70.10
40738;DHT22;54759;48.094;-1.628;2023-06-10T14:15:57;25.50;70.00
40738;DHT22;54759;48.094;-1.628;2023-06-10T14:19:00;25.50;70.10
40738;DHT22;54759;48.094;-1.628;2023-06-10T14:22:02;25.40;70.00
40738;DHT22;54759;48.094;-1.628;2023-06-10T14:25:08;25.70;70.30
40738;DHT22;54759;48.094;-1.628;2023-06-10T14:28:10;25.70;70.30
40738;DHT22;54759;48.094;-1.628;2023-06-10T14:31:11;25.50;70.40
40738;DHT22;54759;48.094;-1.628;2023-06-10T14:34:13;25.30;70.20
40738;DHT22;54759;48.094;-1.628;2023-06-10T14:37:15;25.70;70.60
40738;DHT22;54759;48.094;-1.628;2023-06-10T14:40:18;25.60;70.50
40738;DHT22;54759;48.094;-1.628;2023-06-10T14:43:22;25.60;70.50
40738;DHT22;54759;48.094;-1.628;2023-06-10T14:46:23;25.70;70.70
40738;DHT22;54759;48.094;-1.628;2023-06-10T14:49:25;25.60;71.10
40738;DHT22;54759;48.094;-1.628;2023-06-10T14:52:30;25.70;70.70
40738;DHT22;54759;48.094;-1.628;2023-06-10T14:55:31;25.30;70.50
40738;DHT22;54759;48.094;-1.628;2023-06-10T14:58:33;25.50;70.70
40738;DHT22;54759;48.094;-1.628;2023-06-10T15:01:34;25.70;71.20
40738;DHT22;54759;48.094;-1.628;2023-06-10T15:04:36;25.20;70.20
40738;DHT22;54759;48.094;-1.628;2023-06-10T15:07:38;25.30;70.40
40738;DHT22;54759;48.094;-1.628;2023-06-10T15:10:39;25.40;70.30
40738;DHT22;54759;48.094;-1.628;2023-06-10T15:13:41;25.70;70.70
40738;DHT22;54759;48.094;-1.628;2023-06-10T15:16:44;25.60;70.40
40738;DHT22;54759;48.094;-1.628;2023-06-10T15:19:45;25.70;70.50
40738;DHT22;54759;48.094;-1.628;2023-06-10T15:22:47;25.60;70.20
40738;DHT22;54759;48.094;-1.628;2023-06-10T15:25:49;25.30;70.00
40738;DHT22;54759;48.094;-1.628;2023-06-10T15:28:50;25.70;70.10
40738;DHT22;54759;48.094;-1.628;2023-06-10T15:31:52;25.30;69.70
40738;DHT22;54759;48.094;-1.628;2023-06-10T15:34:53;25.40;69.70
40738;DHT22;54759;48.094;-1.628;2023-06-10T15:37:55;25.70;69.90
40738;DHT22;54759;48.094;-1.628;2023-06-10T15:40:57;25.70;69.70
40738;DHT22;54759;48.094;-1.628;2023-06-10T15:43:58;25.80;69.90
40738;DHT22;54759;48.094;-1.628;2023-06-10T15:47:00;25.70;69.60
40738;DHT22;54759;48.094;-1.628;2023-06-10T15:50:04;25.90;69.80
40738;DHT22;54759;48.094;-1.628;2023-06-10T15:53:07;25.70;69.50
40738;DHT22;54759;48.094;-1.628;2023-06-10T15:56:09;25.80;69.70
40738;DHT22;54759;48.094;-1.628;2023-06-10T15:59:10;25.50;69.40
40738;DHT22;54759;48.094;-1.628;2023-06-10T16:02:12;25.80;69.60
40738;DHT22;54759;48.094;-1.628;2023-06-10T16:05:14;25.80;69.50
40738;DHT22;54759;48.094;-1.628;2023-06-10T16:08:16;25.50;69.40
40738;DHT22;54759;48.094;-1.628;2023-06-10T16:11:18;25.80;70.10
40738;DHT22;54759;48.094;-1.628;2023-06-10T16:14:19;25.70;69.50
40738;DHT22;54759;48.094;-1.628;2023-06-10T16:17:24;25.80;69.40
40738;DHT22;54759;48.094;-1.628;2023-06-10T16:20:26;25.90;69.40
40738;DHT22;54759;48.094;-1.628;2023-06-10T16:23:28;25.80;69.20
40738;DHT22;54759;48.094;-1.628;2023-06-10T16:26:30;25.80;69.10
40738;DHT22;54759;48.094;-1.628;2023-06-10T16:29:31;25.80;69.10
40738;DHT22;54759;48.094;-1.628;2023-06-10T16:32:33;25.80;69.00
40738;DHT22;54759;48.094;-1.628;2023-06-10T16:35:34;25.90;68.90
40738;DHT22;54759;48.094;-1.628;2023-06-10T16:38:36;25.90;68.90
40738;DHT22;54759;48.094;-1.628;2023-06-10T16:41:38;25.90;68.70
40738;DHT22;54759;48.094;-1.628;2023-06-10T16:44:41;25.80;68.60
40738;DHT22;54759;48.094;-1.628;2023-06-10T16:47:44;25.80;68.60
40738;DHT22;54759;48.094;-1.628;2023-06-10T16:50:47;25.80;68.60
40738;DHT22;54759;48.094;-1.628;2023-06-10T16:53:49;25.90;68.50
40738;DHT22;54759;48.094;-1.628;2023-06-10T16:56:51;25.90;68.40
40738;DHT22;54759;48.094;-1.628;2023-06-10T16:59:53;26.00;68.40
40738;DHT22;54759;48.094;-1.628;2023-06-10T17:02:54;25.60;68.20
40738;DHT22;54759;48.094;-1.628;2023-06-10T17:05:56;25.90;68.20
40738;DHT22;54759;48.094;-1.628;2023-06-10T17:08:58;25.90;68.20
40738;DHT22;54759;48.094;-1.628;2023-06-10T17:12:00;25.90;68.00
40738;DHT22;54759;48.094;-1.628;2023-06-10T17:15:01;25.80;68.00
40738;DHT22;54759;48.094;-1.628;2023-06-10T17:18:03;25.90;67.90
40738;DHT22;54759;48.094;-1.628;2023-06-10T17:21:06;25.70;67.80
40738;DHT22;54759;48.094;-1.628;2023-06-10T17:24:08;25.80;68.40
40738;DHT22;54759;48.094;-1.628;2023-06-10T17:27:16;25.40;67.60
40738;DHT22;54759;48.094;-1.628;2023-06-10T17:30:17;25.60;67.80
40738;DHT22;54759;48.094;-1.628;2023-06-10T17:33:19;25.70;67.90
40738;DHT22;54759;48.094;-1.628;2023-06-10T17:36:20;25.30;67.70
40738;DHT22;54759;48.094;-1.628;2023-06-10T17:39:23;25.80;68.00
40738;DHT22;54759;48.094;-1.628;2023-06-10T17:42:25;25.60;68.00
40738;DHT22;54759;48.094;-1.628;2023-06-10T17:45:26;25.70;68.20
40738;DHT22;54759;48.094;-1.628;2023-06-10T17:48:28;25.70;68.20
40738;DHT22;54759;48.094;-1.628;2023-06-10T17:51:29;25.70;68.30
40738;DHT22;54759;48.094;-1.628;2023-06-10T17:54:31;25.50;68.20
40738;DHT22;54759;48.094;-1.628;2023-06-10T17:57:35;25.70;68.50
40738;DHT22;54759;48.094;-1.628;2023-06-10T18:00:36;25.60;68.50
40738;DHT22;54759;48.094;-1.628;2023-06-10T18:03:38;25.60;68.70
40738;DHT22;54759;48.094;-1.628;2023-06-10T18:06:39;25.70;68.90
40738;DHT22;54759;48.094;-1.628;2023-06-10T18:09:45;25.20;68.60
40738;DHT22;54759;48.094;-1.628;2023-06-10T18:12:46;25.60;67.70
40738;DHT22;54759;48.094;-1.628;2023-06-10T18:15:48;25.60;69.50
40738;DHT22;54759;48.094;-1.628;2023-06-10T18:18:49;25.60;69.10
40738;DHT22;54759;48.094;-1.628;2023-06-10T18:21:54;25.60;69.20
40738;DHT22;54759;48.094;-1.628;2023-06-10T18:24:57;25.50;69.20
40738;DHT22;54759;48.094;-1.628;2023-06-10T18:27:58;25.50;69.30
40738;DHT22;54759;48.094;-1.628;2023-06-10T18:31:00;25.60;69.50
40738;DHT22;54759;48.094;-1.628;2023-06-10T18:34:02;25.50;69.70
40738;DHT22;54759;48.094;-1.628;2023-06-10T18:37:06;25.30;69.80
40738;DHT22;54759;48.094;-1.628;2023-06-10T18:40:09;25.10;69.50
40738;DHT22;54759;48.094;-1.628;2023-06-10T18:43:11;25.30;69.70
40738;DHT22;54759;48.094;-1.628;2023-06-10T18:46:13;25.40;70.10
40738;DHT22;54759;48.094;-1.628;2023-06-10T18:49:15;25.30;70.10
40738;DHT22;54759;48.094;-1.628;2023-06-10T18:52:16;25.50;70.40
40738;DHT22;54759;48.094;-1.628;2023-06-10T18:55:18;25.40;70.30